Escanaba, MI

3:28 AM EST on November 27, 2014 (GMT -0500)
Ford | Change Station
CLOSE
Current Station
Airport
Location: Iron Mountain,
Elevation: 1181 ft
Nearby Weather Stations

Elev 1181 ft 45.82 °N, 88.11 °W | Updated 34 minutes ago

Overcast
Overcast
17 °F
Feels Like 2 °F
N
16
Wind Variable Wind from NNW

Today
High -- | Low -- °F
--% Chance of Precip.
Yesterday
High -- | Low -- °F
Precip. -- in
8:04 AM 5:07 PM
Waxing Crescent, 27% visible
Pressure 30.28 in
Visibility 10.0 miles
Clouds Mostly Cloudy 4300 ft
Overcast 11000 ft
Windchill 2 °F
Dew Point 8 °F
Humidity 68%
Rainfall 0.00 in
Snow Depth Not available.
UV 0 out of 12
Pollen .10 out of 12
Air Quality Not available.
Flu Activity Not available.
METAR KIMT 270754Z AUTO 33014KT 10SM BKN043 OVC110 M08/M13 A3021 RMK AO2 SLP253 T10831133

More Conditions Fewer Conditions

Pressure 30.28 in
Visibility 10.0 miles
Clouds Mostly Cloudy 4300 ft
Overcast 11000 ft
Windchill 2 °F
Dew Point 8 °F
Humidity 68%
Rainfall 0.00 in
Snow Depth Not available.
UV 0 out of 12
Pollen .10 out of 12
Air Quality Not available.
Flu Activity Not available.
METAR KIMT 270754Z AUTO 33014KT 10SM BKN043 OVC110 M08/M13 A3021 RMK AO2 SLP253 T10831133

More Conditions Fewer Conditions

10-Day Weather Forecast

Almanac

Astronomy

Nov. 27, 2014 Rise Set
Actual Time
Civil Twilight
Nautical Twilight
Astronomical Twilight
Moon
Length of Visible Light
Length of Day
Tomorrow will be .
, % of the Moon is Illuminated

Today's Extremes

State Highs State Lows

Community

WunderPhotos

Upload Photos

1,773,965 photos uploaded!

WunderBlogs® & News

Nearby

Air Quality

  Air Quality AQ Index Pollutant
Not available.

Snow Depth

Station Depth Elevation

Earthquake Activity

City Distance Mag. Time & Date
Minimum magnitude displayed is 2.5.

Coastal Water Temperatures

Place Temperature

Nearby Weather Stations